createdAt,value
2022-12-13T00:01:29.688Z,15.95
2022-12-13T00:03:59.387Z,18.20
2022-12-13T00:06:27.521Z,17.52
2022-12-13T00:08:55.545Z,13.43
2022-12-13T00:11:23.695Z,12.80
2022-12-13T00:13:51.461Z,20.20
2022-12-13T00:16:23.126Z,16.58
2022-12-13T00:18:52.316Z,21.10
2022-12-13T00:21:22.067Z,17.33
2022-12-13T00:23:49.951Z,12.20
2022-12-13T00:26:20.697Z,16.30
2022-12-13T00:28:49.378Z,14.05
2022-12-13T00:34:07.007Z,16.90
2022-12-13T00:36:34.781Z,13.65
2022-12-13T00:39:02.440Z,15.35
2022-12-13T00:41:32.330Z,13.57
2022-12-13T00:44:01.178Z,10.77
2022-12-13T00:46:29.719Z,10.32
2022-12-13T00:48:59.486Z,10.30
2022-12-13T00:51:29.926Z,14.00
2022-12-13T00:53:58.025Z,13.70
2022-12-13T00:56:28.295Z,16.55
2022-12-13T00:58:57.491Z,14.20
2022-12-13T01:01:28.149Z,14.75
2022-12-13T01:03:57.627Z,14.40
2022-12-13T01:06:29.977Z,11.85
2022-12-13T01:08:57.993Z,12.88
2022-12-13T01:11:26.016Z,12.90
2022-12-13T01:13:53.872Z,13.50
2022-12-13T01:16:22.046Z,11.00
2022-12-13T01:18:49.927Z,11.82
2022-12-13T01:21:20.582Z,15.85
2022-12-13T01:23:51.323Z,12.15
2022-12-13T01:26:21.083Z,13.15
2022-12-13T01:28:49.583Z,11.00
2022-12-13T01:31:20.517Z,15.93
2022-12-13T01:33:49.125Z,9.73
2022-12-13T01:36:18.799Z,10.07
2022-12-13T01:38:46.512Z,13.52
2022-12-13T01:41:18.164Z,12.77
2022-12-13T01:43:56.169Z,10.20
2022-12-13T01:46:24.656Z,11.23
2022-12-13T01:48:58.551Z,11.95
2022-12-13T01:51:29.831Z,16.83
2022-12-13T01:54:00.650Z,12.80
2022-12-13T01:56:34.249Z,7.97
2022-12-13T01:59:03.858Z,13.60
2022-12-13T02:01:32.205Z,12.45
2022-12-13T02:04:00.021Z,11.38
2022-12-13T02:06:33.480Z,10.77
2022-12-13T02:09:01.967Z,16.58
2022-12-13T02:11:31.218Z,11.02
2022-12-13T02:13:58.922Z,11.38
2022-12-13T02:16:39.967Z,10.65
2022-12-13T02:19:43.388Z,10.70
2022-12-13T02:22:30.839Z,9.88
2022-12-13T02:25:17.449Z,6.22
2022-12-13T02:28:03.947Z,11.65
2022-12-13T02:30:59.002Z,11.43
2022-12-13T02:33:37.330Z,7.43
2022-12-13T02:36:14.572Z,7.93
2022-12-13T02:38:53.807Z,7.60
2022-12-13T02:41:27.911Z,11.73
2022-12-13T02:44:00.939Z,9.63
2022-12-13T02:46:34.194Z,9.10
2022-12-13T02:49:02.966Z,9.35
2022-12-13T02:51:32.277Z,6.53
2022-12-13T02:53:59.999Z,9.27
2022-12-13T02:56:27.756Z,11.20
2022-12-13T02:58:57.620Z,10.13
2022-12-13T03:01:41.433Z,7.20
2022-12-13T03:04:26.122Z,7.93
2022-12-13T03:07:00.739Z,10.93
2022-12-13T03:09:40.179Z,9.43
2022-12-13T03:12:33.932Z,7.63
2022-12-13T03:15:08.658Z,6.30
2022-12-13T03:17:44.540Z,6.07
2022-12-13T03:20:22.636Z,10.07
2022-12-13T03:22:51.512Z,6.45
2022-12-13T03:25:30.941Z,10.73
2022-12-13T03:28:02.016Z,11.80
2022-12-13T03:30:35.279Z,7.50
2022-12-13T03:33:04.479Z,7.28
2022-12-13T03:35:34.991Z,10.20
2022-12-13T03:38:12.915Z,8.48
2022-12-13T03:40:51.872Z,16.27
2022-12-13T03:43:21.650Z,8.10
2022-12-13T03:45:51.753Z,10.15
2022-12-13T03:48:22.745Z,9.80
2022-12-13T03:50:51.978Z,12.63
2022-12-13T03:53:23.587Z,9.45
2022-12-13T03:56:02.322Z,8.30
2022-12-13T03:58:35.281Z,10.38
2022-12-13T04:01:05.653Z,10.77
2022-12-13T04:03:34.962Z,10.02
2022-12-13T04:06:02.634Z,17.55
2022-12-13T04:08:30.415Z,8.65
2022-12-13T04:10:58.174Z,10.82
2022-12-13T04:13:39.887Z,10.05
2022-12-13T04:16:08.029Z,9.75
2022-12-13T04:18:37.095Z,9.98
2022-12-13T04:21:04.959Z,10.30
2022-12-13T04:23:32.602Z,11.75
2022-12-13T04:26:01.492Z,9.98
2022-12-13T04:28:29.235Z,10.43
2022-12-13T04:30:56.899Z,9.80
2022-12-13T04:33:25.586Z,14.65
2022-12-13T04:35:54.687Z,15.18
2022-12-13T04:38:22.372Z,10.23
2022-12-13T04:40:50.386Z,11.05
2022-12-13T04:43:18.195Z,12.27
2022-12-13T04:45:45.992Z,8.25
2022-12-13T04:48:13.847Z,11.82
2022-12-13T04:51:00.903Z,12.07
2022-12-13T04:53:29.623Z,12.43
2022-12-13T04:55:57.303Z,9.95
2022-12-13T04:58:25.210Z,16.35
2022-12-13T05:00:52.976Z,11.05
2022-12-13T05:03:20.723Z,8.18
2022-12-13T05:05:48.453Z,6.95
2022-12-13T05:08:17.717Z,13.13
2022-12-13T05:10:45.585Z,10.57
2022-12-13T05:13:13.263Z,9.27
2022-12-13T05:15:41.494Z,13.30
2022-12-13T05:18:09.805Z,11.88
2022-12-13T05:20:40.067Z,12.70
2022-12-13T05:23:08.122Z,12.57
2022-12-13T05:25:37.583Z,8.00
2022-12-13T05:28:08.765Z,12.77
2022-12-13T05:30:54.157Z,12.60
2022-12-13T05:33:22.341Z,11.00
2022-12-13T05:35:50.111Z,9.00
2022-12-13T05:38:18.170Z,9.25
2022-12-13T05:40:47.500Z,9.55
2022-12-13T05:43:21.985Z,8.27
2022-12-13T05:45:50.265Z,12.30
2022-12-13T05:48:24.422Z,10.48
2022-12-13T05:51:11.199Z,17.67
2022-12-13T05:53:40.789Z,7.95
2022-12-13T05:56:10.687Z,16.20
2022-12-13T05:58:39.813Z,12.27
2022-12-13T06:01:09.174Z,9.10
2022-12-13T06:03:37.343Z,11.95
2022-12-13T06:06:06.359Z,13.02
2022-12-13T06:08:34.177Z,9.38
2022-12-13T06:11:11.709Z,10.27
2022-12-13T06:13:43.571Z,11.60
2022-12-13T06:16:22.599Z,13.85
2022-12-13T06:19:01.261Z,9.68
2022-12-13T06:21:41.212Z,9.27
2022-12-13T06:24:11.896Z,8.98
2022-12-13T06:26:39.599Z,9.10
2022-12-13T06:29:08.707Z,10.70
2022-12-13T06:31:36.450Z,10.13
2022-12-13T06:34:14.247Z,9.98
2022-12-13T06:36:43.162Z,9.15
2022-12-13T06:39:10.916Z,13.88
2022-12-13T06:41:38.969Z,10.43
2022-12-13T06:44:08.099Z,15.70
2022-12-13T06:46:36.209Z,14.63
2022-12-13T06:49:08.651Z,13.07
2022-12-13T06:51:38.821Z,12.32
2022-12-13T06:54:13.840Z,11.30
2022-12-13T06:56:41.656Z,18.10
2022-12-13T06:59:10.714Z,15.00
2022-12-13T07:01:41.273Z,11.32
2022-12-13T07:04:29.978Z,10.55
2022-12-13T07:07:01.408Z,12.85
2022-12-13T07:09:33.035Z,14.00
2022-12-13T07:12:02.380Z,18.88
2022-12-13T07:14:40.868Z,12.30
2022-12-13T07:17:10.729Z,12.30
2022-12-13T07:19:38.966Z,15.35
2022-12-13T07:22:07.406Z,11.00
2022-12-13T07:24:36.086Z,13.27
2022-12-13T07:27:03.940Z,10.45
2022-12-13T07:29:31.804Z,14.65
2022-12-13T07:32:02.285Z,12.90
2022-12-13T07:34:31.110Z,12.02
2022-12-13T07:36:58.955Z,13.48
2022-12-13T07:39:30.110Z,14.88
2022-12-13T07:41:58.942Z,14.63
2022-12-13T07:44:27.061Z,15.63
2022-12-13T07:46:55.877Z,23.70
2022-12-13T07:49:26.202Z,17.83
2022-12-13T07:51:57.979Z,16.70
2022-12-13T07:54:25.918Z,10.93
2022-12-13T07:56:53.671Z,14.27
2022-12-13T07:59:28.737Z,22.13
2022-12-13T08:02:01.801Z,15.23
2022-12-13T08:04:38.155Z,14.68
2022-12-13T08:07:08.725Z,15.18
2022-12-13T08:09:38.881Z,14.63
2022-12-13T08:12:09.291Z,12.45
2022-12-13T08:14:40.071Z,18.40
2022-12-13T08:17:10.180Z,14.75
2022-12-13T08:19:41.661Z,13.93
2022-12-13T08:22:14.273Z,16.52
2022-12-13T08:24:43.244Z,18.27
2022-12-13T08:27:13.229Z,12.45
2022-12-13T08:29:40.934Z,13.80
2022-12-13T08:32:12.777Z,11.30
2022-12-13T08:34:42.406Z,13.38
2022-12-13T08:37:10.245Z,15.18
2022-12-13T08:39:39.143Z,16.13
2022-12-13T08:42:16.251Z,12.68
2022-12-13T08:44:46.798Z,13.75
2022-12-13T08:47:24.433Z,12.23
2022-12-13T08:50:02.921Z,19.38
2022-12-13T08:52:32.147Z,18.85
2022-12-13T08:55:10.400Z,25.42
2022-12-13T08:57:40.082Z,20.92
2022-12-13T09:00:13.451Z,19.65
2022-12-13T09:02:42.485Z,28.95
2022-12-13T09:05:12.938Z,24.73
2022-12-13T09:07:41.520Z,25.60
2022-12-13T09:10:25.284Z,30.38
2022-12-13T09:13:03.403Z,33.17
2022-12-13T09:15:51.007Z,35.25
2022-12-13T09:18:23.908Z,27.50
2022-12-13T09:21:10.950Z,34.30
2022-12-13T09:23:45.697Z,30.17
2022-12-13T09:26:17.174Z,26.95
2022-12-13T09:28:45.202Z,40.45
2022-12-13T09:31:15.577Z,40.42
2022-12-13T09:33:44.167Z,33.55
2022-12-13T09:36:17.292Z,34.72
2022-12-13T09:38:45.870Z,32.63
2022-12-13T09:41:28.999Z,26.13
2022-12-13T09:44:02.921Z,27.77
2022-12-13T09:46:34.781Z,32.97
2022-12-13T09:49:23.178Z,31.02
2022-12-13T09:52:11.041Z,34.85
2022-12-13T09:54:48.712Z,31.42
2022-12-13T09:57:32.387Z,30.73
2022-12-13T10:00:08.322Z,30.70
2022-12-13T10:02:47.719Z,29.30
2022-12-13T10:05:24.728Z,30.05
2022-12-13T10:08:09.421Z,29.50
2022-12-13T10:10:39.309Z,26.50
2022-12-13T10:13:18.535Z,30.10
2022-12-13T10:15:53.249Z,27.02
2022-12-13T10:18:32.383Z,39.72
2022-12-13T10:21:04.020Z,28.73
2022-12-13T10:23:59.859Z,30.95
2022-12-13T10:26:24.934Z,30.40
2022-12-13T10:29:03.843Z,27.30
2022-12-13T10:31:41.517Z,28.42
2022-12-13T10:34:21.143Z,25.85
2022-12-13T10:36:50.478Z,22.98
2022-12-13T10:39:37.036Z,29.38
2022-12-13T10:42:22.051Z,28.10
2022-12-13T10:45:11.151Z,32.10
2022-12-13T10:47:42.729Z,22.05
2022-12-13T10:50:24.530Z,27.98
2022-12-13T10:52:59.679Z,29.23
2022-12-13T10:55:32.889Z,26.95
2022-12-13T10:58:03.598Z,22.80
2022-12-13T11:00:38.201Z,20.70
2022-12-13T11:03:11.015Z,23.92
2022-12-13T11:05:40.485Z,25.05
2022-12-13T11:08:21.323Z,22.80
2022-12-13T11:10:58.931Z,22.60
2022-12-13T11:13:36.662Z,23.08
2022-12-13T11:16:06.194Z,28.45
2022-12-13T11:18:38.587Z,27.95
2022-12-13T11:21:07.645Z,24.50
2022-12-13T11:23:39.191Z,23.25
2022-12-13T11:26:12.074Z,22.73
2022-12-13T11:29:02.198Z,24.08
2022-12-13T11:31:33.919Z,25.15
2022-12-13T11:34:11.851Z,21.13
2022-12-13T11:36:46.527Z,23.13
2022-12-13T11:39:19.873Z,23.67
2022-12-13T11:41:55.885Z,24.67
2022-12-13T11:44:32.604Z,18.95
2022-12-13T11:47:01.714Z,21.80
2022-12-13T11:49:38.533Z,19.80
2022-12-13T11:52:18.695Z,16.10
2022-12-13T11:54:53.568Z,24.27
2022-12-13T11:57:41.634Z,21.92
2022-12-13T12:00:34.547Z,20.55
2022-12-13T12:03:18.831Z,21.02
2022-12-13T12:05:55.938Z,21.50
2022-12-13T12:08:38.209Z,20.98
2022-12-13T12:11:15.559Z,19.88
2022-12-13T12:13:51.677Z,15.13
2022-12-13T12:16:27.783Z,17.60
2022-12-13T12:19:01.312Z,29.48
2022-12-13T12:24:40.656Z,16.80
2022-12-13T12:27:25.718Z,21.92
2022-12-13T12:30:07.065Z,21.73
2022-12-13T12:32:47.285Z,20.70
2022-12-13T12:35:38.155Z,22.52
2022-12-13T12:38:31.065Z,17.77
2022-12-13T12:41:19.812Z,24.67
2022-12-13T12:43:52.797Z,19.30
2022-12-13T12:47:08.828Z,22.42
2022-12-13T12:49:55.007Z,25.55
2022-12-13T12:52:34.615Z,26.02
2022-12-13T12:55:13.874Z,25.38
2022-12-13T12:57:56.919Z,25.48
2022-12-13T13:00:40.434Z,28.42
2022-12-13T13:03:22.931Z,38.40
2022-12-13T13:06:01.688Z,20.65
2022-12-13T13:08:40.935Z,21.45
2022-12-13T13:11:24.816Z,23.27
2022-12-13T13:14:23.657Z,25.40
2022-12-13T13:16:52.618Z,28.95
2022-12-13T13:19:45.785Z,21.33
2022-12-13T13:22:32.307Z,18.02
2022-12-13T13:25:17.957Z,16.45
2022-12-13T13:27:47.260Z,19.80
2022-12-13T13:30:19.342Z,21.23
2022-12-13T13:32:47.658Z,18.20
2022-12-13T13:35:47.946Z,20.73
2022-12-13T13:38:44.678Z,16.08
2022-12-13T13:41:42.211Z,29.52
2022-12-13T13:44:42.519Z,26.48
2022-12-13T13:47:13.556Z,24.83
2022-12-13T13:49:57.138Z,23.83
2022-12-13T13:52:38.105Z,26.58
2022-12-13T13:55:29.417Z,18.17
2022-12-13T13:58:24.275Z,21.10
2022-12-13T14:01:18.649Z,18.63
2022-12-13T14:04:16.870Z,24.27
2022-12-13T14:07:16.302Z,20.70
2022-12-13T14:09:54.152Z,21.60
2022-12-13T14:12:49.408Z,20.85
2022-12-13T14:15:50.150Z,20.02
2022-12-13T14:18:47.982Z,24.90
2022-12-13T14:21:22.832Z,23.65
2022-12-13T14:24:01.099Z,23.17
2022-12-13T14:26:42.554Z,20.35
2022-12-13T14:29:16.503Z,21.70
2022-12-13T14:31:46.827Z,20.65
2022-12-13T14:34:23.140Z,22.20
2022-12-13T14:36:59.722Z,34.13
2022-12-13T14:39:30.918Z,31.55
2022-12-13T14:42:01.876Z,25.95
2022-12-13T14:44:33.706Z,22.17
2022-12-13T14:47:03.398Z,31.25
2022-12-13T14:49:35.248Z,24.17
2022-12-13T14:52:06.487Z,23.60
2022-12-13T14:54:45.335Z,22.92
2022-12-13T14:57:17.114Z,20.52
2022-12-13T14:59:50.439Z,24.98
2022-12-13T15:02:30.090Z,21.00
2022-12-13T15:04:59.771Z,30.88
2022-12-13T15:07:31.174Z,25.50
2022-12-13T15:10:01.492Z,26.98
2022-12-13T15:12:32.072Z,21.42
2022-12-13T15:15:03.834Z,29.88
2022-12-13T15:17:35.272Z,23.58
2022-12-13T15:20:26.531Z,23.00
2022-12-13T15:23:01.409Z,33.45
2022-12-13T15:25:33.959Z,26.02
2022-12-13T15:28:01.832Z,31.08
2022-12-13T15:30:33.929Z,21.17
2022-12-13T15:33:07.722Z,28.75
2022-12-13T15:35:37.637Z,20.73
2022-12-13T15:38:05.713Z,21.50
2022-12-13T15:40:34.820Z,25.33
2022-12-13T15:43:02.891Z,18.27
2022-12-13T15:45:36.831Z,21.83
2022-12-13T15:48:07.903Z,25.42
2022-12-13T15:50:40.991Z,35.15
2022-12-13T15:53:24.012Z,21.23
2022-12-13T15:55:52.211Z,27.75
2022-12-13T15:58:29.743Z,54.00
2022-12-13T16:01:05.070Z,40.38
2022-12-13T16:03:41.739Z,33.72
2022-12-13T16:06:10.412Z,23.70
2022-12-13T16:08:40.614Z,27.98
2022-12-13T16:11:09.459Z,25.48
2022-12-13T16:13:38.683Z,28.65
2022-12-13T16:19:05.366Z,30.00
2022-12-13T16:21:33.622Z,26.42
2022-12-13T16:24:01.297Z,25.23
2022-12-13T16:26:31.169Z,23.33
2022-12-13T16:29:00.066Z,26.00
2022-12-13T16:31:35.600Z,25.63
2022-12-13T16:34:07.729Z,23.17
2022-12-13T16:36:36.174Z,28.20
2022-12-13T16:39:04.580Z,23.60
2022-12-13T16:41:36.575Z,21.15
2022-12-13T16:44:08.083Z,22.52
2022-12-13T16:47:17.332Z,31.77
2022-12-13T16:49:27.772Z,24.27
2022-12-13T16:51:56.030Z,26.75
2022-12-13T16:54:25.741Z,26.63
2022-12-13T16:56:54.603Z,29.58
2022-12-13T16:59:24.776Z,21.33
2022-12-13T17:01:52.990Z,19.52
2022-12-13T17:04:22.680Z,23.10
2022-12-13T17:06:55.054Z,22.15
2022-12-13T17:09:26.453Z,26.73
2022-12-13T17:11:54.192Z,27.20
2022-12-13T17:14:22.149Z,23.63
2022-12-13T17:16:50.860Z,25.88
2022-12-13T17:19:19.398Z,26.25
2022-12-13T17:21:48.965Z,32.45
2022-12-13T17:24:18.097Z,28.33
2022-12-13T17:26:54.498Z,19.67
2022-12-13T17:29:23.165Z,19.83
2022-12-13T17:31:50.886Z,26.17
2022-12-13T17:34:18.554Z,28.90
2022-12-13T17:36:46.471Z,40.30
2022-12-13T17:39:14.558Z,30.05
2022-12-13T17:41:43.804Z,34.38
2022-12-13T17:44:22.478Z,34.20
2022-12-13T17:46:55.189Z,23.48
2022-12-13T17:49:24.396Z,25.10
2022-12-13T17:51:53.775Z,30.67
2022-12-13T17:54:22.642Z,21.85
2022-12-13T17:56:52.090Z,22.60
2022-12-13T17:59:20.136Z,26.65
2022-12-13T18:01:48.275Z,20.65
2022-12-13T18:04:16.072Z,34.00
2022-12-13T18:06:43.846Z,23.08
2022-12-13T18:09:12.670Z,24.63
2022-12-13T18:11:41.259Z,25.85
2022-12-13T18:14:13.976Z,26.17
2022-12-13T18:16:43.183Z,27.75
2022-12-13T18:19:14.142Z,28.10
2022-12-13T18:21:43.013Z,27.95
2022-12-13T18:24:11.928Z,28.00
2022-12-13T18:26:39.712Z,24.88
2022-12-13T18:29:07.515Z,25.30
2022-12-13T18:31:36.648Z,23.85
2022-12-13T18:34:04.880Z,28.02
2022-12-13T18:36:32.610Z,26.98
2022-12-13T18:39:01.199Z,23.50
2022-12-13T18:41:31.122Z,20.85
2022-12-13T18:44:01.669Z,23.10
2022-12-13T18:46:31.049Z,24.90
2022-12-13T18:49:00.474Z,25.65
2022-12-13T18:51:28.898Z,19.85
2022-12-13T18:53:58.160Z,23.83
2022-12-13T18:56:27.552Z,27.17
2022-12-13T18:58:55.742Z,21.83
2022-12-13T19:01:26.595Z,26.05
2022-12-13T19:03:55.096Z,25.50
2022-12-13T19:06:26.346Z,23.08
2022-12-13T19:08:56.142Z,23.83
2022-12-13T19:11:24.454Z,22.38
2022-12-13T19:13:52.151Z,20.92
2022-12-13T19:16:22.372Z,28.50
2022-12-13T19:18:50.276Z,23.23
2022-12-13T19:21:20.250Z,25.38
2022-12-13T19:23:56.502Z,20.75
2022-12-13T19:26:26.237Z,20.85
2022-12-13T19:28:53.954Z,22.48
2022-12-13T19:31:28.696Z,24.27
2022-12-13T19:33:59.746Z,30.75
2022-12-13T19:36:27.529Z,21.52
2022-12-13T19:38:56.828Z,24.92
2022-12-13T19:41:25.362Z,30.20
2022-12-13T19:43:54.046Z,23.52
2022-12-13T19:46:22.723Z,20.65
2022-12-13T19:48:50.694Z,26.50
2022-12-13T19:51:21.296Z,25.65
2022-12-13T19:53:49.015Z,26.80
2022-12-13T19:56:22.822Z,29.88
2022-12-13T19:58:51.150Z,23.98
2022-12-13T20:01:19.514Z,25.77
2022-12-13T20:03:48.170Z,23.23
2022-12-13T20:06:18.247Z,31.00
2022-12-13T20:08:48.871Z,26.92
2022-12-13T20:11:20.095Z,26.92
2022-12-13T20:13:55.641Z,25.48
2022-12-13T20:16:26.101Z,24.90
2022-12-13T20:18:56.637Z,26.42
2022-12-13T20:21:25.323Z,22.98
2022-12-13T20:23:53.565Z,32.42
2022-12-13T20:26:25.484Z,25.00
2022-12-13T20:28:54.983Z,29.10
2022-12-13T20:31:25.213Z,21.95
2022-12-13T20:33:55.745Z,22.98
2022-12-13T20:36:26.466Z,24.60
2022-12-13T20:38:55.830Z,27.83
2022-12-13T20:41:25.468Z,30.55
2022-12-13T20:43:55.567Z,22.48
2022-12-13T20:46:24.088Z,29.10
2022-12-13T20:48:52.989Z,22.42
2022-12-13T20:51:22.635Z,20.80
2022-12-13T20:53:51.430Z,26.67
2022-12-13T20:56:21.070Z,24.92
2022-12-13T20:58:49.091Z,21.35
2022-12-13T21:01:20.438Z,21.77
2022-12-13T21:03:48.962Z,21.73
2022-12-13T21:06:16.924Z,25.27
2022-12-13T21:08:58.707Z,24.00
2022-12-13T21:11:28.905Z,19.00
2022-12-13T21:14:05.456Z,21.63
2022-12-13T21:16:43.250Z,20.52
2022-12-13T21:19:14.071Z,23.58
2022-12-13T21:21:41.937Z,20.42
2022-12-13T21:24:10.280Z,22.05
2022-12-13T21:26:38.020Z,19.40
2022-12-13T21:29:07.476Z,22.73
2022-12-13T21:31:36.524Z,18.88
2022-12-13T21:34:07.145Z,26.65
2022-12-13T21:36:36.607Z,21.67
2022-12-13T21:39:06.855Z,32.30
2022-12-13T21:41:34.835Z,21.33
2022-12-13T21:44:02.567Z,21.15
2022-12-13T21:46:55.143Z,20.75
2022-12-13T21:49:19.902Z,22.92
2022-12-13T21:51:48.562Z,17.77
2022-12-13T21:54:17.516Z,19.65
2022-12-13T21:56:59.279Z,16.95
2022-12-13T21:59:28.550Z,19.75
2022-12-13T22:02:12.625Z,19.92
2022-12-13T22:04:44.122Z,16.70
2022-12-13T22:07:13.656Z,19.50
2022-12-13T22:09:41.302Z,20.02
2022-12-13T22:12:10.607Z,15.40
2022-12-13T22:14:38.461Z,16.08
2022-12-13T22:17:06.234Z,26.75
2022-12-13T22:19:33.958Z,16.40
2022-12-13T22:22:03.307Z,18.75
2022-12-13T22:24:31.241Z,18.95
2022-12-13T22:26:59.015Z,17.95
2022-12-13T22:29:26.908Z,26.92
2022-12-13T22:31:54.736Z,29.65
2022-12-13T22:34:22.646Z,32.42
2022-12-13T22:36:51.166Z,29.80
2022-12-13T22:39:21.937Z,25.25
2022-12-13T22:41:51.048Z,30.10
2022-12-13T22:44:20.416Z,27.42
2022-12-13T22:46:48.652Z,27.05
2022-12-13T22:49:16.542Z,26.13
2022-12-13T22:51:44.780Z,25.48
2022-12-13T22:54:12.875Z,33.22
2022-12-13T22:56:42.005Z,20.05
2022-12-13T22:59:09.866Z,22.50
2022-12-13T23:01:39.109Z,30.40
2022-12-13T23:04:07.750Z,28.15
2022-12-13T23:06:37.223Z,27.45
2022-12-13T23:09:07.410Z,22.73
2022-12-13T23:11:49.755Z,26.67
2022-12-13T23:14:21.075Z,39.33
2022-12-13T23:16:50.808Z,29.52
2022-12-13T23:22:08.408Z,29.70
2022-12-13T23:24:36.128Z,34.33
2022-12-13T23:27:04.160Z,26.98
2022-12-13T23:29:33.141Z,19.75
2022-12-13T23:32:00.888Z,24.08
2022-12-13T23:34:28.586Z,30.00
2022-12-13T23:36:56.248Z,25.20
2022-12-13T23:39:24.121Z,24.05
2022-12-13T23:41:51.947Z,23.05
2022-12-13T23:44:20.219Z,30.75
2022-12-13T23:46:50.934Z,23.33
2022-12-13T23:49:20.469Z,24.08
2022-12-13T23:51:49.361Z,25.70
2022-12-13T23:54:19.316Z,32.67
2022-12-13T23:56:47.055Z,28.77
2022-12-13T23:59:15.095Z,30.23
